createdAt,value
2023-05-20T00:00:15.877Z,12.62
2023-05-20T00:05:18.798Z,12.72
2023-05-20T00:10:23.070Z,12.62
2023-05-20T00:15:26.102Z,12.45
2023-05-20T00:20:29.166Z,12.45
2023-05-20T00:25:33.734Z,12.08
2023-05-20T00:30:36.758Z,12.18
2023-05-20T00:35:39.711Z,12.21
2023-05-20T00:40:44.028Z,12.18
2023-05-20T00:45:47.469Z,12.18
2023-05-20T00:50:51.305Z,12.23
2023-05-20T00:55:56.214Z,12.09
2023-05-20T01:00:59.593Z,11.96
2023-05-20T01:06:03.232Z,11.99
2023-05-20T01:11:12.295Z,12.02
2023-05-20T01:16:18.137Z,11.94
2023-05-20T01:21:22.039Z,11.86
2023-05-20T01:26:27.453Z,11.78
2023-05-20T01:31:36.536Z,11.69
2023-05-20T01:36:41.677Z,11.69
2023-05-20T01:41:47.554Z,11.65
2023-05-20T01:46:51.201Z,11.62
2023-05-20T01:51:54.268Z,11.53
2023-05-20T01:56:58.696Z,11.43
2023-05-20T02:02:01.778Z,11.33
2023-05-20T02:07:05.000Z,11.27
2023-05-20T02:12:16.199Z,11.20
2023-05-20T02:17:19.329Z,11.12
2023-05-20T02:22:22.331Z,11.00
2023-05-20T02:27:26.708Z,10.84
2023-05-20T02:32:29.722Z,10.82
2023-05-20T02:37:32.718Z,10.88
2023-05-20T02:42:37.346Z,10.80
2023-05-20T02:47:40.338Z,10.86
2023-05-20T02:52:43.422Z,10.79
2023-05-20T02:57:47.770Z,10.92
2023-05-20T03:02:50.725Z,11.18
2023-05-20T03:07:53.868Z,11.32
2023-05-20T03:12:58.165Z,11.29
2023-05-20T03:18:01.094Z,11.41
2023-05-20T03:23:04.460Z,11.33
2023-05-20T03:28:08.736Z,11.48
2023-05-20T03:33:14.587Z,11.49
2023-05-20T03:38:17.671Z,11.01
2023-05-20T03:43:22.097Z,11.39
2023-05-20T03:48:25.044Z,11.33
2023-05-20T03:53:28.010Z,11.56
2023-05-20T03:58:32.873Z,11.56
2023-05-20T04:03:35.973Z,11.64
2023-05-20T04:08:39.996Z,11.54
2023-05-20T04:13:44.603Z,11.68
2023-05-20T04:18:48.330Z,11.64
2023-05-20T04:23:51.905Z,11.65
2023-05-20T04:28:59.038Z,11.63
2023-05-20T04:34:03.155Z,11.76
2023-05-20T04:39:07.973Z,11.81
2023-05-20T04:44:13.291Z,11.65
2023-05-20T04:49:16.331Z,11.70
2023-05-20T04:54:20.345Z,12.08
2023-05-20T04:59:25.057Z,12.09
2023-05-20T05:04:28.385Z,12.08
2023-05-20T05:09:33.081Z,11.99
2023-05-20T05:14:39.492Z,12.25
2023-05-20T05:19:42.526Z,12.17
2023-05-20T05:24:45.587Z,12.16
2023-05-20T05:29:49.931Z,12.04
2023-05-20T05:34:53.567Z,11.96
2023-05-20T05:39:56.492Z,11.66
2023-05-20T05:45:01.187Z,12.04
2023-05-20T05:50:07.261Z,11.96
2023-05-20T05:55:12.526Z,12.18
2023-05-20T06:00:18.158Z,12.43
2023-05-20T06:05:21.085Z,12.72
2023-05-20T06:10:24.190Z,12.85
2023-05-20T06:15:28.589Z,13.24
2023-05-20T06:20:32.367Z,13.18
2023-05-20T06:25:36.579Z,13.34
2023-05-20T06:30:41.703Z,13.01
2023-05-20T06:35:44.769Z,13.02
2023-05-20T06:40:48.312Z,13.17
2023-05-20T06:45:53.150Z,13.53
2023-05-20T06:51:16.326Z,13.80
2023-05-20T06:56:22.622Z,14.00
2023-05-20T07:01:27.071Z,13.92
2023-05-20T07:06:31.661Z,14.23
2023-05-20T07:11:35.069Z,14.02
2023-05-20T07:16:42.788Z,14.28
2023-05-20T07:21:46.068Z,13.35
2023-05-20T07:26:49.067Z,14.13
2023-05-20T07:31:53.596Z,14.78
2023-05-20T07:36:57.038Z,14.63
2023-05-20T07:42:00.367Z,14.68
2023-05-20T07:47:04.851Z,15.04
2023-05-20T07:52:09.097Z,15.29
2023-05-20T07:57:12.380Z,15.11
2023-05-20T08:02:18.751Z,16.74
2023-05-20T08:07:23.045Z,17.08
2023-05-20T08:12:31.414Z,17.46
2023-05-20T08:17:36.276Z,16.16
2023-05-20T08:22:39.419Z,16.53
2023-05-20T08:27:42.464Z,16.95
2023-05-20T08:32:48.760Z,17.34
2023-05-20T08:37:54.042Z,17.52
2023-05-20T08:42:59.295Z,17.15
2023-05-20T08:48:06.051Z,16.24
2023-05-20T08:53:09.865Z,17.47
2023-05-20T08:58:12.924Z,18.46
2023-05-20T09:03:17.239Z,17.92
2023-05-20T09:08:26.121Z,17.69
2023-05-20T09:13:30.893Z,18.56
2023-05-20T09:18:35.209Z,18.66
2023-05-20T09:23:39.265Z,18.62
2023-05-20T09:28:42.802Z,18.68
2023-05-20T09:33:47.109Z,20.49
2023-05-20T09:38:53.205Z,19.22
2023-05-20T09:43:56.795Z,18.73
2023-05-20T09:49:02.280Z,20.86
2023-05-20T09:54:07.185Z,20.22
2023-05-20T09:59:11.697Z,20.96
2023-05-20T10:04:18.470Z,19.50
2023-05-20T10:09:35.547Z,18.79
2023-05-20T10:14:51.509Z,21.00
2023-05-20T10:20:00.610Z,19.83
2023-05-20T10:25:07.845Z,19.86
2023-05-20T10:30:17.633Z,20.54
2023-05-20T10:35:26.415Z,20.95
2023-05-20T10:40:29.403Z,20.11
2023-05-20T10:45:32.918Z,20.51
2023-05-20T10:50:39.620Z,20.13
2023-05-20T10:55:49.494Z,20.20
2023-05-20T11:00:55.953Z,19.50
2023-05-20T11:06:00.367Z,20.94
2023-05-20T11:11:03.406Z,19.75
2023-05-20T11:16:09.664Z,19.71
2023-05-20T11:21:14.048Z,20.24
2023-05-20T11:26:17.026Z,20.82
2023-05-20T11:31:20.230Z,21.25
2023-05-20T11:36:27.746Z,20.09
2023-05-20T11:41:31.250Z,19.95
2023-05-20T11:46:42.974Z,21.27
2023-05-20T11:51:47.300Z,20.45
2023-05-20T11:56:50.942Z,21.71
2023-05-20T12:01:54.112Z,20.70
2023-05-20T12:06:58.413Z,20.58
2023-05-20T12:12:01.362Z,20.44
2023-05-20T12:17:04.313Z,20.42
2023-05-20T12:22:08.662Z,21.06
2023-05-20T12:27:11.618Z,20.72
2023-05-20T12:32:14.725Z,20.64
2023-05-20T12:37:19.156Z,21.22
2023-05-20T12:42:22.245Z,20.93
2023-05-20T12:47:25.209Z,20.45
2023-05-20T12:52:29.640Z,20.76
2023-05-20T12:57:32.659Z,21.77
2023-05-20T13:02:37.685Z,21.31
2023-05-20T13:07:43.512Z,21.59
2023-05-20T13:12:46.946Z,21.91
2023-05-20T13:17:50.058Z,21.58
2023-05-20T13:22:54.398Z,21.75
2023-05-20T13:27:57.687Z,21.75
2023-05-20T13:33:00.853Z,21.69
2023-05-20T13:38:05.136Z,21.38
2023-05-20T13:43:08.055Z,21.57
2023-05-20T13:48:11.263Z,21.50
2023-05-20T13:53:15.629Z,21.66
2023-05-20T13:58:18.574Z,21.63
2023-05-20T14:03:22.059Z,21.03
2023-05-20T14:08:26.736Z,20.91
2023-05-20T14:13:29.671Z,21.14
2023-05-20T14:18:32.587Z,20.78
2023-05-20T14:23:37.004Z,20.96
2023-05-20T14:28:40.109Z,21.02
2023-05-20T14:33:43.027Z,21.16
2023-05-20T14:38:49.361Z,21.64
2023-05-20T14:43:52.651Z,21.63
2023-05-20T14:48:56.298Z,21.20
2023-05-20T14:54:00.947Z,21.20
2023-05-20T14:59:04.018Z,21.37
2023-05-20T15:04:06.938Z,21.02
2023-05-20T15:09:11.816Z,21.07
2023-05-20T15:14:14.783Z,21.12
2023-05-20T15:19:17.802Z,21.45
2023-05-20T15:24:22.708Z,21.89
2023-05-20T15:29:25.668Z,21.61
2023-05-20T15:34:28.602Z,21.37
2023-05-20T15:39:32.907Z,21.21
2023-05-20T15:44:36.552Z,21.21
2023-05-20T15:49:39.525Z,21.25
2023-05-20T15:54:43.857Z,21.37
2023-05-20T15:59:46.825Z,21.44
2023-05-20T16:04:49.789Z,21.05
2023-05-20T16:09:54.163Z,21.28
2023-05-20T16:14:57.160Z,21.75
2023-05-20T16:20:00.226Z,22.17
2023-05-20T16:25:05.219Z,21.67
2023-05-20T16:30:09.558Z,21.09
2023-05-20T16:35:13.766Z,20.71
2023-05-20T16:40:19.897Z,20.67
2023-05-20T16:45:22.915Z,20.37
2023-05-20T16:50:26.015Z,20.55
2023-05-20T16:55:30.688Z,20.60
2023-05-20T17:00:33.777Z,20.77
2023-05-20T17:05:36.859Z,20.35
2023-05-20T17:10:41.138Z,20.24
2023-05-20T17:15:44.139Z,20.26
2023-05-20T17:20:47.128Z,19.88
2023-05-20T17:25:51.381Z,19.97
2023-05-20T17:30:54.487Z,19.70
2023-05-20T17:35:57.504Z,19.56
2023-05-20T17:41:01.850Z,19.82
2023-05-20T17:46:05.168Z,19.61
2023-05-20T17:51:08.162Z,19.63
2023-05-20T17:56:12.560Z,19.32
2023-05-20T18:01:15.649Z,19.06
2023-05-20T18:06:18.964Z,19.18
2023-05-20T18:11:26.147Z,18.96
2023-05-20T18:16:31.364Z,18.77
2023-05-20T18:21:34.462Z,18.66
2023-05-20T18:26:39.488Z,18.71
2023-05-20T18:31:43.668Z,18.57
2023-05-20T18:36:47.124Z,18.26
2023-05-20T18:41:51.703Z,18.11
2023-05-20T18:46:54.872Z,18.17
2023-05-20T18:51:58.416Z,18.06
2023-05-20T18:57:05.267Z,18.04
2023-05-20T19:02:08.282Z,17.94
2023-05-20T19:07:12.434Z,17.75
2023-05-20T19:12:16.876Z,17.70
2023-05-20T19:17:21.265Z,17.47
2023-05-20T19:22:24.749Z,17.34
2023-05-20T19:27:29.543Z,17.25
2023-05-20T19:32:32.763Z,17.30
2023-05-20T19:37:35.988Z,17.22
2023-05-20T19:42:40.303Z,17.13
2023-05-20T19:47:43.590Z,17.11
2023-05-20T19:52:46.695Z,16.83
2023-05-20T19:57:53.375Z,16.86
2023-05-20T20:02:57.746Z,16.69
2023-05-20T20:08:00.824Z,16.56
2023-05-20T20:13:05.226Z,16.54
2023-05-20T20:18:08.211Z,16.32
2023-05-20T20:23:12.221Z,16.20
2023-05-20T20:28:16.788Z,16.25
2023-05-20T20:33:19.829Z,16.21
2023-05-20T20:38:22.809Z,16.00
2023-05-20T20:43:28.932Z,15.95
2023-05-20T20:48:32.664Z,15.87
2023-05-20T20:53:35.581Z,15.75
2023-05-20T20:58:40.342Z,15.68
2023-05-20T21:03:44.489Z,15.53
2023-05-20T21:08:47.965Z,15.33
2023-05-20T21:13:52.247Z,15.32
2023-05-20T21:18:55.260Z,15.25
2023-05-20T21:23:58.924Z,15.15
2023-05-20T21:29:03.249Z,15.23
2023-05-20T21:34:06.192Z,15.24
2023-05-20T21:39:09.085Z,15.17
2023-05-20T21:44:13.372Z,15.15
2023-05-20T21:49:16.295Z,15.03
2023-05-20T21:54:19.209Z,14.91
2023-05-20T21:59:23.576Z,14.85
2023-05-20T22:04:28.485Z,14.77
2023-05-20T22:09:31.468Z,14.56
2023-05-20T22:14:35.766Z,14.37
2023-05-20T22:19:38.728Z,14.36
2023-05-20T22:24:41.642Z,14.27
2023-05-20T22:29:46.223Z,14.09
2023-05-20T22:34:49.179Z,14.08
2023-05-20T22:39:52.096Z,13.94
2023-05-20T22:44:56.424Z,13.92
2023-05-20T22:50:02.653Z,13.89
2023-05-20T22:55:06.348Z,13.76
2023-05-20T23:00:14.083Z,13.81
2023-05-20T23:05:17.360Z,13.74
2023-05-20T23:10:20.421Z,13.68
2023-05-20T23:15:25.702Z,13.46
2023-05-20T23:20:29.326Z,13.53
2023-05-20T23:25:32.412Z,13.55
2023-05-20T23:30:37.493Z,13.52
2023-05-20T23:35:40.697Z,13.35
2023-05-20T23:40:43.890Z,13.43
2023-05-20T23:45:48.189Z,13.25
2023-05-20T23:50:51.094Z,13.13
2023-05-20T23:55:54.033Z,13.04
